sensor_id;sensor_type;location;lat;lon;timestamp;temperature;humidity
37240;DHT22;23130;48.760;9.178;2024-03-23T00:55:41;10.30;99.90
37240;DHT22;23130;48.760;9.178;2024-03-23T00:58:06;10.40;99.90
37240;DHT22;23130;48.760;9.178;2024-03-23T01:00:31;10.50;99.90
37240;DHT22;23130;48.760;9.178;2024-03-23T01:02:57;10.40;99.90
37240;DHT22;23130;48.760;9.178;2024-03-23T01:05:22;10.50;99.90
37240;DHT22;23130;48.760;9.178;2024-03-23T01:07:48;10.50;99.90
37240;DHT22;23130;48.760;9.178;2024-03-23T01:10:13;10.50;99.90
37240;DHT22;23130;48.760;9.178;2024-03-23T01:12:39;10.50;99.90
37240;DHT22;23130;48.760;9.178;2024-03-23T01:15:04;10.50;99.90
37240;DHT22;23130;48.760;9.178;2024-03-23T01:17:30;10.50;99.90
37240;DHT22;23130;48.760;9.178;2024-03-23T01:19:55;10.50;99.90
37240;DHT22;23130;48.760;9.178;2024-03-23T01:22:22;10.60;99.90
37240;DHT22;23130;48.760;9.178;2024-03-23T01:24:47;10.60;99.90
37240;DHT22;23130;48.760;9.178;2024-03-23T01:27:14;10.60;99.90
37240;DHT22;23130;48.760;9.178;2024-03-23T01:29:41;10.60;99.90
37240;DHT22;23130;48.760;9.178;2024-03-23T01:32:06;10.70;99.90
37240;DHT22;23130;48.760;9.178;2024-03-23T01:34:32;10.80;99.90
37240;DHT22;23130;48.760;9.178;2024-03-23T01:36:57;10.80;99.90
37240;DHT22;23130;48.760;9.178;2024-03-23T01:39:23;10.90;99.90
37240;DHT22;23130;48.760;9.178;2024-03-23T01:41:49;10.90;99.90
37240;DHT22;23130;48.760;9.178;2024-03-23T01:44:16;11.00;99.90
37240;DHT22;23130;48.760;9.178;2024-03-23T01:46:43;11.00;99.90
37240;DHT22;23130;48.760;9.178;2024-03-23T01:49:09;10.90;99.90
37240;DHT22;23130;48.760;9.178;2024-03-23T01:51:35;11.00;99.90
37240;DHT22;23130;48.760;9.178;2024-03-23T01:54:04;11.00;99.90
37240;DHT22;23130;48.760;9.178;2024-03-23T01:56:34;11.00;99.90
37240;DHT22;23130;48.760;9.178;2024-03-23T01:59:03;11.00;99.90
37240;DHT22;23130;48.760;9.178;2024-03-23T02:01:29;11.00;99.90
37240;DHT22;23130;48.760;9.178;2024-03-23T02:03:55;11.10;99.90
37240;DHT22;23130;48.760;9.178;2024-03-23T02:06:20;11.10;99.90
37240;DHT22;23130;48.760;9.178;2024-03-23T02:08:46;11.00;99.90
37240;DHT22;23130;48.760;9.178;2024-03-23T02:11:12;11.00;99.90
37240;DHT22;23130;48.760;9.178;2024-03-23T02:13:37;11.00;99.90
37240;DHT22;23130;48.760;9.178;2024-03-23T02:16:03;10.90;99.90
37240;DHT22;23130;48.760;9.178;2024-03-23T02:18:30;10.80;99.90
37240;DHT22;23130;48.760;9.178;2024-03-23T02:20:55;10.70;99.90
37240;DHT22;23130;48.760;9.178;2024-03-23T02:23:21;10.50;99.90
37240;DHT22;23130;48.760;9.178;2024-03-23T02:25:47;10.50;99.90
37240;DHT22;23130;48.760;9.178;2024-03-23T02:28:13;10.50;99.90
37240;DHT22;23130;48.760;9.178;2024-03-23T02:30:38;10.50;99.90
37240;DHT22;23130;48.760;9.178;2024-03-23T02:33:04;10.40;99.90
37240;DHT22;23130;48.760;9.178;2024-03-23T02:35:29;10.50;99.90
37240;DHT22;23130;48.760;9.178;2024-03-23T02:37:55;10.50;99.90
37240;DHT22;23130;48.760;9.178;2024-03-23T02:40:25;10.50;99.90
37240;DHT22;23130;48.760;9.178;2024-03-23T02:42:52;10.40;99.90
37240;DHT22;23130;48.760;9.178;2024-03-23T02:45:17;10.30;99.90
37240;DHT22;23130;48.760;9.178;2024-03-23T02:47:43;10.20;99.90
37240;DHT22;23130;48.760;9.178;2024-03-23T02:50:10;10.30;99.90
37240;DHT22;23130;48.760;9.178;2024-03-23T02:52:36;10.30;99.90
37240;DHT22;23130;48.760;9.178;2024-03-23T02:55:03;10.20;99.90
37240;DHT22;23130;48.760;9.178;2024-03-23T02:57:29;10.20;99.90
37240;DHT22;23130;48.760;9.178;2024-03-23T02:59:55;10.30;99.90
37240;DHT22;23130;48.760;9.178;2024-03-23T03:02:20;10.30;99.90
37240;DHT22;23130;48.760;9.178;2024-03-23T03:04:46;10.40;99.90
37240;DHT22;23130;48.760;9.178;2024-03-23T03:07:12;10.40;99.90
37240;DHT22;23130;48.760;9.178;2024-03-23T03:09:37;10.30;99.90
37240;DHT22;23130;48.760;9.178;2024-03-23T03:12:07;10.40;99.90
37240;DHT22;23130;48.760;9.178;2024-03-23T03:14:33;10.40;99.90
37240;DHT22;23130;48.760;9.178;2024-03-23T03:16:59;10.40;99.90
37240;DHT22;23130;48.760;9.178;2024-03-23T03:19:26;10.40;99.90
37240;DHT22;23130;48.760;9.178;2024-03-23T03:21:51;10.40;99.90
37240;DHT22;23130;48.760;9.178;2024-03-23T03:24:18;10.40;99.90
37240;DHT22;23130;48.760;9.178;2024-03-23T03:26:43;10.50;99.90
37240;DHT22;23130;48.760;9.178;2024-03-23T03:29:09;10.50;99.90
37240;DHT22;23130;48.760;9.178;2024-03-23T03:31:35;10.50;99.90
37240;DHT22;23130;48.760;9.178;2024-03-23T03:34:01;10.50;99.90
37240;DHT22;23130;48.760;9.178;2024-03-23T03:36:27;10.40;99.90
37240;DHT22;23130;48.760;9.178;2024-03-23T03:38:53;10.40;99.90
37240;DHT22;23130;48.760;9.178;2024-03-23T03:41:39;10.50;99.90
37240;DHT22;23130;48.760;9.178;2024-03-23T03:44:05;10.60;99.90
37240;DHT22;23130;48.760;9.178;2024-03-23T03:46:31;10.50;99.90
37240;DHT22;23130;48.760;9.178;2024-03-23T03:48:56;10.50;99.90
37240;DHT22;23130;48.760;9.178;2024-03-23T03:51:21;10.50;99.90
37240;DHT22;23130;48.760;9.178;2024-03-23T03:53:48;10.60;99.90
37240;DHT22;23130;48.760;9.178;2024-03-23T03:56:14;10.50;99.90
37240;DHT22;23130;48.760;9.178;2024-03-23T03:58:39;10.50;99.90
37240;DHT22;23130;48.760;9.178;2024-03-23T04:01:05;10.50;99.90
37240;DHT22;23130;48.760;9.178;2024-03-23T04:03:32;10.50;99.90
37240;DHT22;23130;48.760;9.178;2024-03-23T04:05:57;10.50;99.90
37240;DHT22;23130;48.760;9.178;2024-03-23T04:08:23;10.60;99.90
37240;DHT22;23130;48.760;9.178;2024-03-23T04:10:49;10.50;99.90
37240;DHT22;23130;48.760;9.178;2024-03-23T04:13:32;10.40;99.90
37240;DHT22;23130;48.760;9.178;2024-03-23T04:16:00;10.40;99.90
37240;DHT22;23130;48.760;9.178;2024-03-23T04:18:25;10.40;99.90
37240;DHT22;23130;48.760;9.178;2024-03-23T04:20:51;10.40;99.90
37240;DHT22;23130;48.760;9.178;2024-03-23T04:23:17;10.40;99.90
37240;DHT22;23130;48.760;9.178;2024-03-23T04:25:42;10.40;99.90
37240;DHT22;23130;48.760;9.178;2024-03-23T04:28:08;10.40;99.90
37240;DHT22;23130;48.760;9.178;2024-03-23T04:30:33;10.40;99.90
37240;DHT22;23130;48.760;9.178;2024-03-23T04:32:59;10.40;99.90
37240;DHT22;23130;48.760;9.178;2024-03-23T04:35:26;10.40;99.90
37240;DHT22;23130;48.760;9.178;2024-03-23T04:37:51;10.40;99.90
37240;DHT22;23130;48.760;9.178;2024-03-23T04:40:21;10.40;99.90
37240;DHT22;23130;48.760;9.178;2024-03-23T04:42:46;10.40;99.90
37240;DHT22;23130;48.760;9.178;2024-03-23T04:45:13;10.50;99.90
37240;DHT22;23130;48.760;9.178;2024-03-23T04:47:38;10.70;99.90
37240;DHT22;23130;48.760;9.178;2024-03-23T04:50:04;10.70;99.90
37240;DHT22;23130;48.760;9.178;2024-03-23T04:52:31;10.80;99.90
37240;DHT22;23130;48.760;9.178;2024-03-23T04:54:57;10.90;99.90
37240;DHT22;23130;48.760;9.178;2024-03-23T04:57:22;10.90;99.90
37240;DHT22;23130;48.760;9.178;2024-03-23T04:59:48;11.00;99.90
37240;DHT22;23130;48.760;9.178;2024-03-23T05:02:14;11.00;99.90
37240;DHT22;23130;48.760;9.178;2024-03-23T05:04:39;10.80;99.90
37240;DHT22;23130;48.760;9.178;2024-03-23T05:07:05;10.40;99.90
37240;DHT22;23130;48.760;9.178;2024-03-23T05:09:31;10.10;99.90
37240;DHT22;23130;48.760;9.178;2024-03-23T05:11:58;10.00;99.90
37240;DHT22;23130;48.760;9.178;2024-03-23T05:14:24;9.80;99.90
37240;DHT22;23130;48.760;9.178;2024-03-23T05:16:49;9.70;99.90
37240;DHT22;23130;48.760;9.178;2024-03-23T05:19:15;9.70;99.90
37240;DHT22;23130;48.760;9.178;2024-03-23T05:21:40;9.60;99.90
37240;DHT22;23130;48.760;9.178;2024-03-23T05:24:06;9.60;99.90
37240;DHT22;23130;48.760;9.178;2024-03-23T05:26:31;9.50;99.90
37240;DHT22;23130;48.760;9.178;2024-03-23T05:28:59;9.50;99.90
37240;DHT22;23130;48.760;9.178;2024-03-23T05:31:25;9.60;99.90
37240;DHT22;23130;48.760;9.178;2024-03-23T05:33:50;9.40;99.90
37240;DHT22;23130;48.760;9.178;2024-03-23T05:36:17;9.40;99.90
37240;DHT22;23130;48.760;9.178;2024-03-23T05:38:42;9.30;99.90
37240;DHT22;23130;48.760;9.178;2024-03-23T05:41:08;9.20;99.90
37240;DHT22;23130;48.760;9.178;2024-03-23T05:43:33;9.30;99.90
37240;DHT22;23130;48.760;9.178;2024-03-23T05:45:59;9.20;99.90
37240;DHT22;23130;48.760;9.178;2024-03-23T05:48:28;9.20;99.90
37240;DHT22;23130;48.760;9.178;2024-03-23T05:50:55;9.10;99.90
37240;DHT22;23130;48.760;9.178;2024-03-23T05:53:21;9.10;99.90
37240;DHT22;23130;48.760;9.178;2024-03-23T05:55:46;9.10;99.90
37240;DHT22;23130;48.760;9.178;2024-03-23T05:58:15;9.10;99.90
37240;DHT22;23130;48.760;9.178;2024-03-23T06:00:41;9.10;99.90
37240;DHT22;23130;48.760;9.178;2024-03-23T06:03:10;9.00;99.90
37240;DHT22;23130;48.760;9.178;2024-03-23T06:05:38;9.00;99.90
37240;DHT22;23130;48.760;9.178;2024-03-23T06:08:04;8.90;99.90
37240;DHT22;23130;48.760;9.178;2024-03-23T06:10:30;8.80;99.90
37240;DHT22;23130;48.760;9.178;2024-03-23T06:12:55;8.80;99.90
37240;DHT22;23130;48.760;9.178;2024-03-23T06:15:21;8.80;99.90
37240;DHT22;23130;48.760;9.178;2024-03-23T06:17:47;8.70;99.90
37240;DHT22;23130;48.760;9.178;2024-03-23T06:20:17;8.60;99.90
37240;DHT22;23130;48.760;9.178;2024-03-23T06:23:01;8.60;99.90
37240;DHT22;23130;48.760;9.178;2024-03-23T06:25:28;8.50;99.90
37240;DHT22;23130;48.760;9.178;2024-03-23T06:27:53;8.40;99.90
37240;DHT22;23130;48.760;9.178;2024-03-23T06:30:19;8.40;99.90
37240;DHT22;23130;48.760;9.178;2024-03-23T06:32:44;8.30;99.90
37240;DHT22;23130;48.760;9.178;2024-03-23T06:35:09;8.30;99.90
37240;DHT22;23130;48.760;9.178;2024-03-23T06:37:35;8.40;99.90
37240;DHT22;23130;48.760;9.178;2024-03-23T06:40:01;8.30;99.90
37240;DHT22;23130;48.760;9.178;2024-03-23T06:42:27;8.30;99.90
37240;DHT22;23130;48.760;9.178;2024-03-23T06:44:52;8.20;99.90
37240;DHT22;23130;48.760;9.178;2024-03-23T06:47:18;8.20;99.90
37240;DHT22;23130;48.760;9.178;2024-03-23T06:49:43;8.10;99.90
37240;DHT22;23130;48.760;9.178;2024-03-23T06:52:09;8.10;99.90
37240;DHT22;23130;48.760;9.178;2024-03-23T06:54:34;8.20;99.90
37240;DHT22;23130;48.760;9.178;2024-03-23T06:57:00;8.20;99.90
37240;DHT22;23130;48.760;9.178;2024-03-23T06:59:27;8.30;99.90
37240;DHT22;23130;48.760;9.178;2024-03-23T07:01:52;8.50;99.90
37240;DHT22;23130;48.760;9.178;2024-03-23T07:04:18;8.50;99.90
37240;DHT22;23130;48.760;9.178;2024-03-23T07:06:44;8.50;99.90
37240;DHT22;23130;48.760;9.178;2024-03-23T07:09:10;8.50;99.90
37240;DHT22;23130;48.760;9.178;2024-03-23T07:11:35;8.50;99.90
37240;DHT22;23130;48.760;9.178;2024-03-23T07:14:01;8.60;99.90
37240;DHT22;23130;48.760;9.178;2024-03-23T07:16:28;8.70;99.90
37240;DHT22;23130;48.760;9.178;2024-03-23T07:18:54;8.70;99.90
37240;DHT22;23130;48.760;9.178;2024-03-23T07:21:20;8.70;99.90
37240;DHT22;23130;48.760;9.178;2024-03-23T07:23:46;8.70;99.90
37240;DHT22;23130;48.760;9.178;2024-03-23T07:26:11;8.70;99.90
37240;DHT22;23130;48.760;9.178;2024-03-23T07:28:37;8.90;99.90
37240;DHT22;23130;48.760;9.178;2024-03-23T07:31:07;9.10;99.90
37240;DHT22;23130;48.760;9.178;2024-03-23T07:33:54;9.40;99.90
37240;DHT22;23130;48.760;9.178;2024-03-23T07:36:19;9.50;99.90
37240;DHT22;23130;48.760;9.178;2024-03-23T07:38:45;9.60;99.90
37240;DHT22;23130;48.760;9.178;2024-03-23T07:41:11;9.70;99.90
37240;DHT22;23130;48.760;9.178;2024-03-23T07:43:37;9.50;99.90
37240;DHT22;23130;48.760;9.178;2024-03-23T07:46:03;9.30;99.90
37240;DHT22;23130;48.760;9.178;2024-03-23T07:48:29;9.10;99.90
37240;DHT22;23130;48.760;9.178;2024-03-23T07:51:02;9.00;99.90
37240;DHT22;23130;48.760;9.178;2024-03-23T07:53:28;8.90;99.90
37240;DHT22;23130;48.760;9.178;2024-03-23T07:55:57;8.80;99.90
37240;DHT22;23130;48.760;9.178;2024-03-23T07:58:33;8.70;99.90
37240;DHT22;23130;48.760;9.178;2024-03-23T08:01:06;8.50;99.90
37240;DHT22;23130;48.760;9.178;2024-03-23T08:03:35;8.20;99.90
37240;DHT22;23130;48.760;9.178;2024-03-23T08:06:10;8.10;99.90
37240;DHT22;23130;48.760;9.178;2024-03-23T08:08:36;7.80;99.90
37240;DHT22;23130;48.760;9.178;2024-03-23T08:11:01;7.60;99.90
37240;DHT22;23130;48.760;9.178;2024-03-23T08:13:28;7.50;99.90
37240;DHT22;23130;48.760;9.178;2024-03-23T08:16:00;7.40;99.90
37240;DHT22;23130;48.760;9.178;2024-03-23T08:18:27;7.30;99.90
37240;DHT22;23130;48.760;9.178;2024-03-23T08:20:59;7.50;99.90
37240;DHT22;23130;48.760;9.178;2024-03-23T08:23:25;7.70;99.90
37240;DHT22;23130;48.760;9.178;2024-03-23T08:25:51;7.90;99.90
37240;DHT22;23130;48.760;9.178;2024-03-23T08:28:17;8.00;99.90
37240;DHT22;23130;48.760;9.178;2024-03-23T08:30:43;8.10;99.90
37240;DHT22;23130;48.760;9.178;2024-03-23T08:33:08;8.20;99.90
37240;DHT22;23130;48.760;9.178;2024-03-23T08:35:34;8.10;99.90
37240;DHT22;23130;48.760;9.178;2024-03-23T08:38:00;8.10;99.90
37240;DHT22;23130;48.760;9.178;2024-03-23T08:40:27;8.20;99.90
37240;DHT22;23130;48.760;9.178;2024-03-23T08:42:52;8.20;99.90
37240;DHT22;23130;48.760;9.178;2024-03-23T08:45:17;8.30;99.90
37240;DHT22;23130;48.760;9.178;2024-03-23T08:47:43;8.40;99.90
37240;DHT22;23130;48.760;9.178;2024-03-23T08:50:08;8.40;99.90
37240;DHT22;23130;48.760;9.178;2024-03-23T08:52:34;8.60;99.90
37240;DHT22;23130;48.760;9.178;2024-03-23T08:55:00;8.70;99.90
37240;DHT22;23130;48.760;9.178;2024-03-23T08:57:26;8.70;99.90
37240;DHT22;23130;48.760;9.178;2024-03-23T08:59:51;8.80;99.90
37240;DHT22;23130;48.760;9.178;2024-03-23T09:02:32;8.90;99.90
37240;DHT22;23130;48.760;9.178;2024-03-23T09:04:57;8.90;99.90
37240;DHT22;23130;48.760;9.178;2024-03-23T09:07:29;9.00;99.90
37240;DHT22;23130;48.760;9.178;2024-03-23T09:09:55;8.90;99.90
37240;DHT22;23130;48.760;9.178;2024-03-23T09:12:20;8.80;99.90
37240;DHT22;23130;48.760;9.178;2024-03-23T09:14:46;8.70;99.90
37240;DHT22;23130;48.760;9.178;2024-03-23T09:17:11;8.50;99.90
37240;DHT22;23130;48.760;9.178;2024-03-23T09:19:37;8.50;99.90
37240;DHT22;23130;48.760;9.178;2024-03-23T09:22:02;8.60;99.90
37240;DHT22;23130;48.760;9.178;2024-03-23T09:24:28;8.70;99.90
37240;DHT22;23130;48.760;9.178;2024-03-23T09:26:54;8.70;99.90
37240;DHT22;23130;48.760;9.178;2024-03-23T09:29:35;8.80;99.90
37240;DHT22;23130;48.760;9.178;2024-03-23T09:32:00;8.90;99.90
37240;DHT22;23130;48.760;9.178;2024-03-23T09:34:26;8.90;99.90
37240;DHT22;23130;48.760;9.178;2024-03-23T09:36:51;8.90;99.90
37240;DHT22;23130;48.760;9.178;2024-03-23T09:39:17;8.80;99.90
37240;DHT22;23130;48.760;9.178;2024-03-23T09:41:43;8.90;99.90
37240;DHT22;23130;48.760;9.178;2024-03-23T09:44:09;9.10;99.90
37240;DHT22;23130;48.760;9.178;2024-03-23T09:46:34;9.30;99.90
37240;DHT22;23130;48.760;9.178;2024-03-23T09:49:02;9.30;99.90
37240;DHT22;23130;48.760;9.178;2024-03-23T09:51:30;9.40;99.90
37240;DHT22;23130;48.760;9.178;2024-03-23T09:53:56;9.50;99.90
37240;DHT22;23130;48.760;9.178;2024-03-23T09:56:22;9.70;99.90
37240;DHT22;23130;48.760;9.178;2024-03-23T09:58:49;9.80;99.90
37240;DHT22;23130;48.760;9.178;2024-03-23T10:01:14;9.60;99.90
37240;DHT22;23130;48.760;9.178;2024-03-23T10:03:43;9.50;99.90
37240;DHT22;23130;48.760;9.178;2024-03-23T10:06:09;9.50;99.90
37240;DHT22;23130;48.760;9.178;2024-03-23T10:08:35;9.50;99.90
37240;DHT22;23130;48.760;9.178;2024-03-23T10:11:12;9.40;99.90
37240;DHT22;23130;48.760;9.178;2024-03-23T10:13:39;9.40;99.90
37240;DHT22;23130;48.760;9.178;2024-03-23T10:16:06;9.40;99.90
37240;DHT22;23130;48.760;9.178;2024-03-23T10:18:31;9.40;99.90
37240;DHT22;23130;48.760;9.178;2024-03-23T10:23:30;9.50;99.90
37240;DHT22;23130;48.760;9.178;2024-03-23T10:26:08;9.50;99.90
37240;DHT22;23130;48.760;9.178;2024-03-23T10:28:37;9.50;99.90
37240;DHT22;23130;48.760;9.178;2024-03-23T10:31:08;9.60;99.90
37240;DHT22;23130;48.760;9.178;2024-03-23T10:33:36;9.70;99.90
37240;DHT22;23130;48.760;9.178;2024-03-23T10:36:02;9.80;99.90
37240;DHT22;23130;48.760;9.178;2024-03-23T10:38:27;9.80;99.90
37240;DHT22;23130;48.760;9.178;2024-03-23T10:40:54;9.60;99.90
37240;DHT22;23130;48.760;9.178;2024-03-23T10:43:20;9.50;99.90
37240;DHT22;23130;48.760;9.178;2024-03-23T10:45:45;9.40;99.90
37240;DHT22;23130;48.760;9.178;2024-03-23T10:48:11;9.40;99.90
37240;DHT22;23130;48.760;9.178;2024-03-23T10:50:36;9.40;99.90
37240;DHT22;23130;48.760;9.178;2024-03-23T10:53:02;9.30;99.90
37240;DHT22;23130;48.760;9.178;2024-03-23T10:55:27;9.10;99.90
37240;DHT22;23130;48.760;9.178;2024-03-23T10:57:57;8.60;99.90
37240;DHT22;23130;48.760;9.178;2024-03-23T11:00:25;7.80;99.90
37240;DHT22;23130;48.760;9.178;2024-03-23T11:02:50;7.20;99.90
37240;DHT22;23130;48.760;9.178;2024-03-23T11:07:49;5.70;99.90
37240;DHT22;23130;48.760;9.178;2024-03-23T11:10:24;5.30;99.90
37240;DHT22;23130;48.760;9.178;2024-03-23T11:12:50;5.10;99.90
37240;DHT22;23130;48.760;9.178;2024-03-23T11:15:15;5.10;99.90
37240;DHT22;23130;48.760;9.178;2024-03-23T11:17:41;5.40;99.90
37240;DHT22;23130;48.760;9.178;2024-03-23T11:20:06;5.80;99.90
37240;DHT22;23130;48.760;9.178;2024-03-23T11:22:38;6.10;99.90
37240;DHT22;23130;48.760;9.178;2024-03-23T11:25:12;6.40;99.90
37240;DHT22;23130;48.760;9.178;2024-03-23T11:27:39;6.50;99.90
37240;DHT22;23130;48.760;9.178;2024-03-23T11:30:14;6.70;99.90
37240;DHT22;23130;48.760;9.178;2024-03-23T11:32:40;7.10;99.90
37240;DHT22;23130;48.760;9.178;2024-03-23T11:35:06;7.30;99.90
37240;DHT22;23130;48.760;9.178;2024-03-23T11:37:31;7.40;99.90
37240;DHT22;23130;48.760;9.178;2024-03-23T11:39:57;7.50;99.90
37240;DHT22;23130;48.760;9.178;2024-03-23T11:42:22;7.40;99.90
37240;DHT22;23130;48.760;9.178;2024-03-23T11:44:48;7.50;99.90
37240;DHT22;23130;48.760;9.178;2024-03-23T11:47:13;7.70;99.90
37240;DHT22;23130;48.760;9.178;2024-03-23T11:49:39;8.00;99.90
37240;DHT22;23130;48.760;9.178;2024-03-23T11:52:06;8.40;99.90
37240;DHT22;23130;48.760;9.178;2024-03-23T11:54:33;8.60;99.90
37240;DHT22;23130;48.760;9.178;2024-03-23T11:56:59;8.70;99.90
37240;DHT22;23130;48.760;9.178;2024-03-23T11:59:36;8.70;99.90
37240;DHT22;23130;48.760;9.178;2024-03-23T12:02:11;8.80;99.90
37240;DHT22;23130;48.760;9.178;2024-03-23T12:04:40;8.90;99.90
37240;DHT22;23130;48.760;9.178;2024-03-23T12:07:15;9.00;99.90
37240;DHT22;23130;48.760;9.178;2024-03-23T12:09:44;9.00;99.90
37240;DHT22;23130;48.760;9.178;2024-03-23T12:12:17;9.10;99.90
37240;DHT22;23130;48.760;9.178;2024-03-23T12:14:44;9.10;99.90
37240;DHT22;23130;48.760;9.178;2024-03-23T12:17:10;9.10;99.90
37240;DHT22;23130;48.760;9.178;2024-03-23T12:19:36;9.10;99.90
37240;DHT22;23130;48.760;9.178;2024-03-23T12:22:04;9.00;99.90
37240;DHT22;23130;48.760;9.178;2024-03-23T12:24:30;9.00;99.90
37240;DHT22;23130;48.760;9.178;2024-03-23T12:26:59;9.00;99.90
37240;DHT22;23130;48.760;9.178;2024-03-23T12:29:25;9.00;99.90
37240;DHT22;23130;48.760;9.178;2024-03-23T12:31:51;9.10;99.90
37240;DHT22;23130;48.760;9.178;2024-03-23T12:34:16;9.10;99.90
37240;DHT22;23130;48.760;9.178;2024-03-23T12:36:42;9.30;99.90
37240;DHT22;23130;48.760;9.178;2024-03-23T12:39:07;9.40;99.90
37240;DHT22;23130;48.760;9.178;2024-03-23T12:41:33;9.30;99.90
37240;DHT22;23130;48.760;9.178;2024-03-23T12:43:58;9.40;99.90
37240;DHT22;23130;48.760;9.178;2024-03-23T12:46:24;9.50;99.90
37240;DHT22;23130;48.760;9.178;2024-03-23T12:48:50;9.40;99.90
37240;DHT22;23130;48.760;9.178;2024-03-23T12:51:15;9.30;99.90
37240;DHT22;23130;48.760;9.178;2024-03-23T12:53:41;9.10;99.90
37240;DHT22;23130;48.760;9.178;2024-03-23T12:56:06;9.00;99.90
37240;DHT22;23130;48.760;9.178;2024-03-23T12:58:31;9.00;99.90
37240;DHT22;23130;48.760;9.178;2024-03-23T13:00:58;8.90;99.90
37240;DHT22;23130;48.760;9.178;2024-03-23T13:03:23;8.90;99.90
37240;DHT22;23130;48.760;9.178;2024-03-23T13:05:52;8.90;99.90
37240;DHT22;23130;48.760;9.178;2024-03-23T13:08:17;9.00;99.90
37240;DHT22;23130;48.760;9.178;2024-03-23T13:10:43;9.10;99.90
37240;DHT22;23130;48.760;9.178;2024-03-23T13:13:09;9.10;99.90
37240;DHT22;23130;48.760;9.178;2024-03-23T13:15:35;9.10;99.90
37240;DHT22;23130;48.760;9.178;2024-03-23T13:18:02;9.00;99.90
37240;DHT22;23130;48.760;9.178;2024-03-23T13:20:29;9.10;99.90
37240;DHT22;23130;48.760;9.178;2024-03-23T13:22:54;9.30;99.90
37240;DHT22;23130;48.760;9.178;2024-03-23T13:25:19;9.40;99.90
37240;DHT22;23130;48.760;9.178;2024-03-23T13:27:45;9.50;99.90
37240;DHT22;23130;48.760;9.178;2024-03-23T13:30:11;9.60;99.90
37240;DHT22;23130;48.760;9.178;2024-03-23T13:32:36;9.60;99.90
37240;DHT22;23130;48.760;9.178;2024-03-23T13:35:03;9.80;99.90
37240;DHT22;23130;48.760;9.178;2024-03-23T13:37:28;9.80;99.90
37240;DHT22;23130;48.760;9.178;2024-03-23T13:39:54;9.70;99.90
37240;DHT22;23130;48.760;9.178;2024-03-23T13:42:19;9.70;99.90
37240;DHT22;23130;48.760;9.178;2024-03-23T13:44:45;10.10;99.90
37240;DHT22;23130;48.760;9.178;2024-03-23T13:47:10;10.30;99.90
37240;DHT22;23130;48.760;9.178;2024-03-23T13:49:36;10.30;99.90
37240;DHT22;23130;48.760;9.178;2024-03-23T13:52:01;10.20;99.90
37240;DHT22;23130;48.760;9.178;2024-03-23T13:54:27;10.00;99.90
37240;DHT22;23130;48.760;9.178;2024-03-23T13:56:52;10.00;99.90
37240;DHT22;23130;48.760;9.178;2024-03-23T13:59:19;10.00;99.90
37240;DHT22;23130;48.760;9.178;2024-03-23T14:01:45;10.00;99.90
37240;DHT22;23130;48.760;9.178;2024-03-23T14:04:11;9.90;99.90
37240;DHT22;23130;48.760;9.178;2024-03-23T14:06:37;9.80;99.90
37240;DHT22;23130;48.760;9.178;2024-03-23T14:09:02;9.80;99.90
37240;DHT22;23130;48.760;9.178;2024-03-23T14:11:29;9.60;99.90
37240;DHT22;23130;48.760;9.178;2024-03-23T14:13:56;9.50;99.90
37240;DHT22;23130;48.760;9.178;2024-03-23T14:16:21;9.10;99.90
37240;DHT22;23130;48.760;9.178;2024-03-23T14:18:47;8.80;99.90
37240;DHT22;23130;48.760;9.178;2024-03-23T14:21:13;8.20;99.90
37240;DHT22;23130;48.760;9.178;2024-03-23T14:23:38;7.10;99.90
37240;DHT22;23130;48.760;9.178;2024-03-23T14:26:06;6.60;99.90
37240;DHT22;23130;48.760;9.178;2024-03-23T14:28:33;6.50;99.90
37240;DHT22;23130;48.760;9.178;2024-03-23T14:30:59;6.60;99.90
37240;DHT22;23130;48.760;9.178;2024-03-23T14:33:24;6.70;99.90
37240;DHT22;23130;48.760;9.178;2024-03-23T14:35:56;6.70;99.90
37240;DHT22;23130;48.760;9.178;2024-03-23T14:38:22;6.80;99.90
37240;DHT22;23130;48.760;9.178;2024-03-23T14:40:48;6.90;99.90
37240;DHT22;23130;48.760;9.178;2024-03-23T14:43:14;6.80;99.90
37240;DHT22;23130;48.760;9.178;2024-03-23T14:48:27;6.90;99.90
37240;DHT22;23130;48.760;9.178;2024-03-23T14:50:56;6.80;99.90
37240;DHT22;23130;48.760;9.178;2024-03-23T14:53:21;6.80;99.90
37240;DHT22;23130;48.760;9.178;2024-03-23T14:55:47;6.90;99.90
37240;DHT22;23130;48.760;9.178;2024-03-23T14:58:14;6.80;99.90
37240;DHT22;23130;48.760;9.178;2024-03-23T15:00:41;6.80;99.90
37240;DHT22;23130;48.760;9.178;2024-03-23T15:03:06;6.90;99.90
37240;DHT22;23130;48.760;9.178;2024-03-23T15:05:32;6.90;99.90
37240;DHT22;23130;48.760;9.178;2024-03-23T15:07:57;6.80;99.90
37240;DHT22;23130;48.760;9.178;2024-03-23T15:10:24;6.90;99.90
37240;DHT22;23130;48.760;9.178;2024-03-23T15:12:49;7.00;99.90
37240;DHT22;23130;48.760;9.178;2024-03-23T15:15:14;7.00;99.90
37240;DHT22;23130;48.760;9.178;2024-03-23T15:17:40;7.10;99.90
37240;DHT22;23130;48.760;9.178;2024-03-23T15:20:10;7.10;99.90
37240;DHT22;23130;48.760;9.178;2024-03-23T15:22:37;7.00;99.90
37240;DHT22;23130;48.760;9.178;2024-03-23T15:25:02;7.10;99.90
37240;DHT22;23130;48.760;9.178;2024-03-23T15:27:28;7.10;99.90
37240;DHT22;23130;48.760;9.178;2024-03-23T15:29:53;7.00;99.90
37240;DHT22;23130;48.760;9.178;2024-03-23T15:32:21;7.10;99.90
37240;DHT22;23130;48.760;9.178;2024-03-23T15:34:47;7.10;99.90
37240;DHT22;23130;48.760;9.178;2024-03-23T15:37:13;7.10;99.90
37240;DHT22;23130;48.760;9.178;2024-03-23T15:39:39;7.10;99.90
37240;DHT22;23130;48.760;9.178;2024-03-23T15:42:06;7.00;99.90
37240;DHT22;23130;48.760;9.178;2024-03-23T15:44:32;7.00;99.90
37240;DHT22;23130;48.760;9.178;2024-03-23T15:46:58;7.00;99.90
37240;DHT22;23130;48.760;9.178;2024-03-23T15:49:24;7.10;99.90
37240;DHT22;23130;48.760;9.178;2024-03-23T15:51:49;7.20;99.90
37240;DHT22;23130;48.760;9.178;2024-03-23T15:54:15;7.40;99.90
37240;DHT22;23130;48.760;9.178;2024-03-23T15:56:40;7.40;99.90
37240;DHT22;23130;48.760;9.178;2024-03-23T15:59:07;7.40;99.90
37240;DHT22;23130;48.760;9.178;2024-03-23T16:01:34;7.30;99.90
37240;DHT22;23130;48.760;9.178;2024-03-23T16:04:03;7.20;99.90
37240;DHT22;23130;48.760;9.178;2024-03-23T16:06:30;7.30;99.90
37240;DHT22;23130;48.760;9.178;2024-03-23T16:08:57;7.40;99.90
37240;DHT22;23130;48.760;9.178;2024-03-23T16:11:22;7.50;99.90
37240;DHT22;23130;48.760;9.178;2024-03-23T16:13:47;7.50;99.90
37240;DHT22;23130;48.760;9.178;2024-03-23T16:16:13;7.50;99.90
37240;DHT22;23130;48.760;9.178;2024-03-23T16:18:39;7.40;99.90
37240;DHT22;23130;48.760;9.178;2024-03-23T16:21:05;7.30;99.90
37240;DHT22;23130;48.760;9.178;2024-03-23T16:23:34;7.10;99.90
37240;DHT22;23130;48.760;9.178;2024-03-23T16:26:02;6.90;99.90
37240;DHT22;23130;48.760;9.178;2024-03-23T16:28:31;6.70;99.90
37240;DHT22;23130;48.760;9.178;2024-03-23T16:31:15;6.60;99.90
37240;DHT22;23130;48.760;9.178;2024-03-23T16:33:42;6.40;99.90
37240;DHT22;23130;48.760;9.178;2024-03-23T16:36:10;6.40;99.90
37240;DHT22;23130;48.760;9.178;2024-03-23T16:38:40;6.30;99.90
37240;DHT22;23130;48.760;9.178;2024-03-23T16:41:07;6.20;99.90